Latest Weather Observations for Bundaberg

IDQ60801

Issued at 6:35 pm EST Saturday 25 October 2014 (issued every 30 minutes, with the page automatically refreshed every 10 minutes)

About weather observations | Map of weather stations | Latest weather observations for QLD | Other Formats
Station Details ID: 039128 Name: BUNDABERG AERO Lat: -24.91 Lon: 152.32 Height: 30.82 m
Data from the previous 72 hours. | See also: Recent months at Bundaberg
Date/Time
EST
Temp
°C
App
Temp
°C
Dew
Point
Rel
Hum
%
Delta-T
°C
Wind Press
QNH
hPa
Press
MSL
hPa
Rain
since 9 am
mm
Dir
 
Spd
km/h
Gust
km/h
Spd
kts
Gust
kts
25/06:30pm 21.9 20.0 15.3 66 3.9 N 19 26 10 14 1018.2 1018.1 0.0
25/06:00pm 22.3 19.7 14.9 63 4.4 N 22 28 12 15 1018.0 1017.9 0.0
25/05:30pm 23.0 19.9 14.6 59 5.0 N 24 32 13 17 1017.5 1017.4 0.0
25/05:00pm 23.7 20.3 13.8 53 5.8 N 24 30 13 16 1017.2 1017.1 0.0
25/04:30pm 24.6 21.1 13.5 50 6.5 NNE 24 32 13 17 1017.2 1017.1 0.0
25/04:00pm 25.1 21.3 13.6 49 6.7 NNE 26 33 14 18 1017.2 1017.1 0.0
25/03:30pm 25.9 22.9 13.7 47 7.2 N 22 30 12 16 1017.0 1016.9 0.0
25/03:00pm 26.1 22.8 13.9 47 7.2 NNE 24 32 13 17 1017.0 1016.9 0.0
25/02:30pm 26.2 22.5 14.0 47 7.2 NNE 26 33 14 18 1017.3 1017.2 0.0
25/02:00pm 27.0 24.0 13.7 44 7.9 NNE 22 30 12 16 1017.7 1017.6 0.0
25/01:30pm 26.8 24.4 12.8 42 8.2 N 17 22 9 12 1018.1 1018.0 0.0
25/01:00pm 27.0 24.5 12.3 40 8.5 N 17 24 9 13 1018.4 1018.3 0.0
25/12:30pm 26.4 23.7 12.8 43 7.9 NNE 19 30 10 16 1018.9 1018.8 0.0
25/12:00pm 26.8 24.2 13.2 43 8.0 N 19 24 10 13 1019.4 1019.3 0.0
25/11:30am 26.8 23.9 12.8 42 8.2 NNE 20 30 11 16 1019.8 1019.7 0.0
25/11:00am 26.5 24.2 12.9 43 7.9 N 17 22 9 12 1020.3 1020.2 0.0
25/10:30am 26.2 24.8 13.3 45 7.6 NNE 13 26 7 14 1020.8 1020.7 0.0
25/10:00am 25.9 24.9 13.4 46 7.3 NE 11 24 6 13 1021.3 1021.2 0.0
25/09:30am 24.7 24.0 13.3 49 6.6 N 9 19 5 10 1021.7 1021.6 0.0
25/09:00am 24.5 23.5 13.4 50 6.5 NNW 11 17 6 9 1022.0 1021.9 0.0
25/08:30am 23.1 20.7 12.7 52 6.0 N 17 22 9 12 1022.1 1022.0 0.0
25/08:00am 22.6 21.7 13.7 57 5.2 NNW 11 15 6 8 1022.0 1021.9 0.0
25/07:30am 21.8 22.2 14.7 64 4.2 WNW 6 11 3 6 1021.9 1021.8 0.0
25/07:00am 20.1 20.3 14.7 71 3.1 SW 7 9 4 5 1021.8 1021.7 0.0
25/06:30am 18.2 18.7 14.9 81 1.9 SSW 6 9 3 5 1021.5 1021.4 0.0
25/06:00am 15.7 15.2 13.9 89 1.0 SSW 9 11 5 6 1021.1 1021.0 0.0
25/05:30am 14.8 14.3 13.7 93 0.6 S 9 13 5 7 1020.7 1020.6 0.0
25/05:00am 13.9 14.7 12.6 92 0.7 CALM 0 0 0 0 1019.9 1019.8 0.0
25/04:30am 13.5 14.2 12.1 91 0.8 SW 0 0 0 0 1019.7 1019.6 0.0
25/04:00am 13.9 14.3 12.5 91 0.8 SSW 2 7 1 4 1019.9 1019.8 0.0
25/03:30am 13.9 14.7 12.5 91 0.8 CALM 0 0 0 0 1019.5 1019.4 0.0
25/03:00am 13.8 14.4 12.0 89 1.0 CALM 0 0 0 0 1019.5 1019.4 0.0
25/02:30am 14.1 14.9 12.5 90 0.9 CALM 0 0 0 0 1019.8 1019.7 0.0
25/02:00am 14.0 14.8 12.4 90 0.9 CALM 0 0 0 0 1020.0 1019.9 0.0
25/01:30am 13.9 14.5 11.8 87 1.1 CALM 0 0 0 0 1020.3 1020.2 0.0
25/01:00am 14.9 15.1 12.9 88 1.1 S 4 7 2 4 1020.5 1020.4 0.0
25/12:30am 15.1 16.0 12.8 86 1.3 CALM 0 0 0 0 1020.9 1020.8 0.0
25/12:00am 15.1 15.8 12.2 83 1.6 SSW 0 0 0 0 1021.3 1021.2 0.0
 
Date/Time
EST
Temp
°C
App
Temp
°C
Dew
Point
Rel
Hum
%
Delta-T
°C
Wind Press
QNH
hPa
Press
MSL
hPa
Rain
since 9 am
mm
Dir
 
Spd
km/h
Gust
km/h
Spd
kts
Gust
kts
24/11:30pm 16.5 16.4 13.8 84 1.5 S 7 9 4 5 1021.5 1021.4 0.0
24/11:00pm 16.6 16.5 13.3 81 1.8 S 6 7 3 4 1021.5 1021.4 0.0
24/10:30pm 17.0 16.8 13.7 81 1.9 S 7 9 4 5 1021.9 1021.8 0.0
24/10:00pm 17.6 17.6 14.1 80 2.0 S 7 9 4 5 1021.9 1021.8 0.0
24/09:30pm 17.4 17.2 13.5 78 2.2 SSE 7 9 4 5 1022.1 1022.0 0.0
24/09:00pm 18.2 18.2 13.7 75 2.6 SSE 6 6 3 3 1022.2 1022.1 0.0
24/08:30pm 19.3 19.4 13.9 71 3.1 ENE 6 7 3 4 1022.0 1021.9 0.0
24/08:00pm 19.7 19.4 14.3 71 3.1 ENE 9 11 5 6 1021.7 1021.6 0.0
24/07:30pm 19.9 19.9 14.3 70 3.2 ENE 7 11 4 6 1021.4 1021.3 0.0
24/07:00pm 20.4 20.1 14.3 68 3.5 ENE 9 15 5 8 1021.3 1021.2 0.0
24/06:30pm 21.1 19.7 14.5 66 3.9 ENE 15 19 8 10 1021.1 1021.0 0.0
24/06:00pm 21.6 19.3 14.7 65 4.1 NNE 20 26 11 14 1020.8 1020.7 0.0
24/05:30pm 22.3 20.5 14.4 61 4.6 NE 17 22 9 12 1020.6 1020.5 0.0
24/05:00pm 23.2 20.7 14.2 57 5.3 NE 20 28 11 15 1020.3 1020.2 0.0
24/04:30pm 24.0 20.9 13.5 52 6.1 NE 22 30 12 16 1020.0 1019.9 0.0
24/04:00pm 24.7 21.9 13.3 49 6.6 ENE 20 26 11 14 1019.7 1019.6 0.0
24/03:30pm 25.4 22.7 13.6 48 6.9 NE 20 28 11 15 1019.6 1019.5 0.0
24/03:00pm 25.7 22.5 13.2 46 7.3 NE 22 32 12 17 1019.5 1019.4 0.0
24/02:30pm 26.2 23.6 13.7 46 7.4 NE 20 28 11 15 1019.8 1019.7 0.0
24/02:00pm 26.1 22.2 12.2 42 8.0 NE 24 35 13 19 1019.7 1019.6 0.0
24/01:30pm 26.3 23.0 12.7 43 7.9 ENE 22 35 12 19 1020.1 1020.0 0.0
24/01:00pm 26.2 22.8 12.6 43 7.9 ENE 22 33 12 18 1020.3 1020.2 0.0
24/12:30pm 26.7 23.9 13.1 43 8.0 E 20 33 11 18 1020.6 1020.5 0.0
24/12:00pm 26.3 22.5 12.4 42 8.0 E 24 37 13 20 1021.0 1020.9 0.0
24/11:30am 26.2 22.2 11.9 41 8.2 E 24 33 13 18 1021.4 1021.3 0.0
24/11:00am 25.4 23.3 13.6 48 6.9 E 17 28 9 15 1021.6 1021.5 0.0
24/10:30am 25.2 23.0 13.4 48 6.9 E 17 26 9 14 1022.0 1021.9 0.0
24/10:00am 24.8 23.3 13.0 47 6.8 SE 13 24 7 13 1022.2 1022.1 0.0
24/09:30am 24.7 23.5 13.9 51 6.4 E 13 19 7 10 1022.4 1022.3 0.0
24/09:00am 22.9 22.3 13.4 55 5.5 SE 9 13 5 7 1022.6 1022.5 0.0
24/08:30am 23.5 22.6 13.7 54 5.7 SE 11 17 6 9 1022.5 1022.4 0.0
24/08:00am 22.5 22.2 14.4 60 4.7 ESE 9 17 5 9 1022.5 1022.4 0.0
24/07:30am 21.5 20.8 14.4 64 4.2 SSE 11 17 6 9 1022.2 1022.1 0.0
24/07:00am 19.0 18.1 13.8 72 3.0 S 11 15 6 8 1021.9 1021.8 0.0
24/06:30am 17.4 16.4 13.3 77 2.3 S 11 15 6 8 1021.6 1021.5 0.0
24/06:00am 15.7 14.6 13.0 84 1.5 S 11 13 6 7 1021.6 1021.5 0.0
24/05:30am 15.0 13.9 13.0 88 1.1 S 11 13 6 7 1021.3 1021.2 0.0
24/05:00am 14.3 13.9 12.3 88 1.1 SSW 6 7 3 4 1020.7 1020.6 0.0
24/04:30am 14.3 13.4 12.5 89 1.0 SSW 9 11 5 6 1020.4 1020.3 0.0
24/04:00am 14.6 13.3 12.6 88 1.1 S 11 15 6 8 1020.2 1020.1 0.0
24/03:30am 14.5 14.0 12.5 88 1.1 S 7 9 4 5 1020.4 1020.3 0.0
24/03:00am 14.5 12.9 12.7 89 1.0 S 13 15 7 8 1020.6 1020.5 0.0
24/02:30am 14.4 14.1 12.6 89 1.0 S 6 7 3 4 1020.4 1020.3 0.0
24/02:00am 14.2 15.0 12.4 89 1.0 CALM 0 0 0 0 1020.6 1020.5 0.0
24/01:30am 14.4 15.2 12.4 88 1.1 CALM 0 0 0 0 1020.8 1020.7 0.0
24/01:00am 14.5 15.3 12.4 87 1.1 CALM 0 0 0 0 1021.0 1020.9 0.0
24/12:30am 14.4 15.1 12.3 87 1.1 CALM 0 0 0 0 1021.4 1021.3 0.0
24/12:00am 15.3 15.0 12.6 84 1.5 SSE 6 7 3 4 1021.5 1021.4 0.0
 
Date/Time
EST
Temp
°C
App
Temp
°C
Dew
Point
Rel
Hum
%
Delta-T
°C
Wind Press
QNH
hPa
Press
MSL
hPa
Rain
since 9 am
mm
Dir
 
Spd
km/h
Gust
km/h
Spd
kts
Gust
kts
23/11:30pm 16.0 15.8 12.9 82 1.7 SE 6 7 3 4 1021.4 1021.3 0.0
23/11:00pm 15.8 16.6 12.5 81 1.8 CALM 0 0 0 0 1021.3 1021.2 0.0
23/10:30pm 16.6 17.6 13.1 80 2.0 CALM 0 0 0 0 1021.4 1021.3 0.0
23/10:00pm 17.0 18.0 13.3 79 2.1 CALM 0 0 0 0 1021.5 1021.4 0.0
23/09:30pm 16.9 17.3 12.6 76 2.4 E 2 6 1 3 1021.6 1021.5 0.0
23/09:00pm 18.7 18.4 13.3 71 3.1 E 7 7 4 4 1021.4 1021.3 0.0
23/08:30pm 19.1 19.0 13.3 69 3.3 ENE 6 9 3 5 1021.1 1021.0 0.0
23/08:00pm 19.8 19.8 13.5 67 3.6 ENE 6 9 3 5 1020.8 1020.7 0.0
23/07:30pm 20.4 19.6 14.1 67 3.7 NE 11 15 6 8 1020.3 1020.2 0.0
23/07:00pm 20.6 19.5 14.3 67 3.7 NE 13 15 7 8 1019.9 1019.8 0.0
23/06:30pm 21.1 19.6 14.3 65 4.0 NE 15 20 8 11 1019.5 1019.4 0.0
23/06:00pm 21.6 20.0 13.8 61 4.5 NE 15 20 8 11 1019.1 1019.0 0.0
23/05:30pm 22.4 19.7 12.9 55 5.4 ENE 19 24 10 13 1018.7 1018.6 0.0
23/05:00pm 23.5 19.6 12.2 49 6.4 ENE 24 30 13 16 1018.2 1018.1 0.0
23/04:30pm 24.5 20.0 11.5 44 7.3 ENE 26 32 14 17 1017.8 1017.7 0.0
23/04:00pm 25.4 21.0 10.4 39 8.3 ENE 24 30 13 16 1017.8 1017.7 0.0
23/03:30pm 25.6 21.0 9.8 37 8.7 ENE 24 32 13 17 1018.0 1017.9 0.0
23/03:00pm 26.2 22.5 10.0 36 9.0 E 20 28 11 15 1018.1 1018.0 0.0
23/02:30pm 26.9 23.3 10.6 36 9.2 ENE 20 32 11 17 1018.1 1018.0 0.0
23/02:00pm 26.2 22.9 10.8 38 8.7 E 19 26 10 14 1018.3 1018.2 0.0
23/01:30pm 26.5 23.1 11.4 39 8.6 E 20 30 11 16 1018.5 1018.4 0.0
23/01:00pm 26.2 22.9 11.5 40 8.4 ENE 20 32 11 17 1018.9 1018.8 0.0
23/12:30pm 25.3 21.9 10.4 39 8.3 ESE 19 28 10 15 1019.3 1019.2 0.0
23/12:00pm 25.2 21.7 10.3 39 8.3 E 19 30 10 16 1019.8 1019.7 0.0
23/11:30am 25.7 22.6 10.3 38 8.6 SSE 17 26 9 14 1020.5 1020.4 0.0
23/11:00am 24.6 21.8 11.2 43 7.5 E 17 28 9 15 1020.9 1020.8 0.0
23/10:30am 24.4 22.8 11.4 44 7.3 SE 11 19 6 10 1021.3 1021.2 0.0
23/10:00am 23.9 21.2 11.6 46 6.9 ESE 17 22 9 12 1021.7 1021.6 0.0
23/09:30am 23.7 21.3 11.4 46 6.9 ESE 15 24 8 13 1021.9 1021.8 0.0
23/09:00am 22.9 20.6 11.6 49 6.3 SSE 15 22 8 12 1022.0 1021.9 0.0
23/08:30am 21.8 19.2 10.6 49 6.1 SSE 15 22 8 12 1022.1 1022.0 0.0
23/08:00am 21.8 20.4 12.1 54 5.4 SE 11 20 6 11 1022.3 1022.2 0.0
23/07:30am 20.2 18.3 11.9 59 4.6 S 13 17 7 9 1022.0 1021.9 0.0
23/07:00am 18.6 16.9 12.6 68 3.3 S 13 19 7 10 1022.0 1021.9 0.0
23/06:30am 17.1 15.8 12.4 74 2.6 S 11 13 6 7 1021.9 1021.8 0.0
23/06:00am 14.9 13.3 11.7 81 1.7 S 11 13 6 7 1021.9 1021.8 0.0
23/05:30am 14.0 11.9 11.3 84 1.4 S 13 17 7 9 1021.6 1021.5 0.0
23/05:00am 13.8 11.7 11.3 85 1.3 S 13 15 7 8 1021.6 1021.5 0.0
23/04:30am 13.8 11.7 11.3 85 1.3 SSW 13 15 7 8 1021.5 1021.4 0.0
23/04:00am 14.0 12.3 11.2 83 1.5 SSW 11 15 6 8 1021.4 1021.3 0.0
23/03:30am 14.3 12.7 11.5 83 1.5 S 11 13 6 7 1021.1 1021.0 0.0
23/03:00am 14.0 12.2 11.0 82 1.6 SSW 11 15 6 8 1021.0 1020.9 0.0
23/02:30am 14.4 12.3 11.0 80 1.8 SSW 13 15 7 8 1021.1 1021.0 0.0
23/02:00am 14.5 12.4 11.1 80 1.8 SSW 13 15 7 8 1021.2 1021.1 0.0
23/01:30am 14.6 13.3 11.2 80 1.8 SSW 9 13 5 7 1021.5 1021.4 0.0
23/01:00am 14.7 13.0 11.1 79 1.9 SSW 11 13 6 7 1021.8 1021.7 0.0
23/12:30am 14.7 13.4 11.1 79 1.9 SSW 9 13 5 7 1022.1 1022.0 0.0
23/12:00am 15.3 14.0 11.1 76 2.2 S 9 13 5 7 1022.2 1022.1 0.0
 
Date/Time
EST
Temp
°C
App
Temp
°C
Dew
Point
Rel
Hum
%
Delta-T
°C
Wind Press
QNH
hPa
Press
MSL
hPa
Rain
since 9 am
mm
Dir
 
Spd
km/h
Gust
km/h
Spd
kts
Gust
kts
22/11:30pm 15.7 14.7 11.1 74 2.5 S 7 11 4 6 1022.4 1022.3 0.0
22/11:00pm 16.3 14.6 11.2 72 2.7 SSE 11 17 6 9 1022.5 1022.4 0.0
22/10:30pm 15.7 13.2 11.1 74 2.5 SSE 15 19 8 10 1022.5 1022.4 0.0
22/10:00pm 16.2 13.4 11.2 72 2.7 SE 17 19 9 10 1022.6 1022.5 0.0
22/09:30pm 16.4 14.3 11.1 71 2.8 SE 13 17 7 9 1022.6 1022.5 0.0
22/09:00pm 18.0 15.6 11.3 65 3.6 SSE 15 20 8 11 1022.7 1022.6 0.0
22/08:30pm 18.0 14.8 11.1 64 3.7 SE 19 22 10 12 1022.6 1022.5 0.0
22/08:00pm 18.5 15.1 10.6 60 4.2 SE 19 24 10 13 1022.5 1022.4 0.0
22/07:30pm 19.4 15.1 10.7 57 4.7 SE 24 30 13 16 1022.2 1022.1 0.0
22/07:00pm 19.9 15.6 11.9 60 4.4 ESE 26 33 14 18 1022.0 1021.9 0.0

Other Formats:

Comma delimited format used in spreadsheet applications
http://www.bom.gov.au/fwo/IDQ60801/IDQ60801.94387.axf

JavaScript Object Notation format (JSON) in row-major order
http://www.bom.gov.au/fwo/IDQ60801/IDQ60801.94387.json